Marquette Farm, Indiana
Current Conditions -  °F | °C
As of 4:53 AM on Sunday 21 Dec 2014 (Local Time) from KHUF Reporting Station
Haze Haze  
Wind Chill: 22°   Ceiling: Unl
Heat Index: 22°   Visibility: 6mi
Dew Point: 19°   Wind: 3mph
Humidity: 89%   Direction: 100°E
Pressure: 30.28"   Gusts: NA
Location:  39.543°N, 87.3153°W
Report Text: KHUF 210953Z 10003KT 6SM BR FEW027 M06/M07 A3028 RMK AO2 SLP259 I1000 T10561072
Loading
Personal Weather Stations






























Interactive Weather Map New forecast layout! Learn more

10-Day Weather Forecast

Advertisements
Track Severe Weather on mobile